createdAt,value
2022-11-10T00:02:08.096Z,95603.63
2022-11-10T00:04:53.370Z,95599.19
2022-11-10T00:07:38.891Z,95599.78
2022-11-10T00:10:24.306Z,95607.31
2022-11-10T00:13:09.276Z,95604.41
2022-11-10T00:16:13.180Z,95615.84
2022-11-10T00:18:58.503Z,95612.03
2022-11-10T00:21:43.411Z,95616.44
2022-11-10T00:24:29.283Z,95619.06
2022-11-10T00:27:17.457Z,95617.69
2022-11-10T00:30:03.076Z,95618.06
2022-11-10T00:32:48.709Z,95619.72
2022-11-10T00:35:33.969Z,95618.44
2022-11-10T00:38:19.386Z,95632.53
2022-11-10T00:41:04.942Z,95632.03
2022-11-10T00:43:50.177Z,95634.81
2022-11-10T00:46:35.486Z,95648.84
2022-11-10T00:49:20.801Z,95649.22
2022-11-10T00:52:06.184Z,95651.66
2022-11-10T00:54:51.604Z,95652.94
2022-11-10T00:57:36.916Z,95661.84
2022-11-10T01:00:22.209Z,95661.66
2022-11-10T01:03:07.883Z,95667.59
2022-11-10T01:05:52.835Z,95666.44
2022-11-10T01:08:39.213Z,95668.09
2022-11-10T01:11:28.428Z,95676.19
2022-11-10T01:14:13.560Z,95671.69
2022-11-10T01:16:58.904Z,95666.06
2022-11-10T01:19:44.217Z,95673.94
2022-11-10T01:22:30.317Z,95669.19
2022-11-10T01:25:15.830Z,95677.25
2022-11-10T01:28:01.098Z,95673.81
2022-11-10T01:30:46.153Z,95681.28
2022-11-10T01:33:31.832Z,95675.44
2022-11-10T01:36:17.234Z,95674.59
2022-11-10T01:39:02.338Z,95675.75
2022-11-10T01:41:47.689Z,95675.59
2022-11-10T01:44:35.140Z,95676.22
2022-11-10T01:47:20.262Z,95678.53
2022-11-10T01:50:06.477Z,95683.47
2022-11-10T01:52:54.470Z,95680.47
2022-11-10T01:55:43.129Z,95692.69
2022-11-10T01:58:32.588Z,95689.09
2022-11-10T02:01:18.024Z,95694.50
2022-11-10T02:04:07.389Z,95698.81
2022-11-10T02:06:54.407Z,95690.38
2022-11-10T02:09:39.580Z,95694.69
2022-11-10T02:12:45.093Z,95692.59
2022-11-10T02:15:30.022Z,95689.75
2022-11-10T02:18:15.331Z,95696.84
2022-11-10T02:21:04.117Z,95687.31
2022-11-10T02:23:53.918Z,95692.41
2022-11-10T02:27:05.445Z,95687.00
2022-11-10T02:29:50.721Z,95695.84
2022-11-10T02:32:36.360Z,95689.94
2022-11-10T02:35:21.376Z,95695.41
2022-11-10T02:38:06.777Z,95702.59
2022-11-10T02:40:52.078Z,95698.16
2022-11-10T02:43:38.358Z,95700.81
2022-11-10T02:46:23.696Z,95701.13
2022-11-10T02:49:09.132Z,95715.81
2022-11-10T02:51:54.846Z,95726.72
2022-11-10T02:54:40.144Z,95737.44
2022-11-10T02:57:25.371Z,95748.47
2022-11-10T03:00:11.237Z,95752.34
2022-11-10T03:03:02.192Z,95760.56
2022-11-10T03:05:47.436Z,95760.03
2022-11-10T03:08:32.935Z,95770.56
2022-11-10T03:11:18.178Z,95773.88
2022-11-10T03:14:03.865Z,95783.41
2022-11-10T03:16:48.910Z,95785.75
2022-11-10T03:19:34.081Z,95793.50
2022-11-10T03:22:19.358Z,95805.50
2022-11-10T03:25:05.107Z,95805.84
2022-11-10T03:27:50.423Z,95817.31
2022-11-10T03:30:36.060Z,95815.00
2022-11-10T03:33:21.693Z,95825.72
2022-11-10T03:36:07.377Z,95832.97
2022-11-10T03:38:52.313Z,95836.09
2022-11-10T03:41:37.582Z,95839.25
2022-11-10T03:44:23.005Z,95843.78
2022-11-10T03:47:08.409Z,95835.25
2022-11-10T03:49:53.595Z,95835.47
2022-11-10T03:52:40.270Z,95841.50
2022-11-10T03:55:25.304Z,95846.13
2022-11-10T03:58:10.507Z,95850.72
2022-11-10T04:00:56.312Z,95846.28
2022-11-10T04:03:41.752Z,95857.00
2022-11-10T04:06:45.585Z,95857.50
2022-11-10T04:09:30.934Z,95863.28
2022-11-10T04:12:34.991Z,95860.50
2022-11-10T04:15:39.034Z,95866.44
2022-11-10T04:18:29.377Z,95859.22
2022-11-10T04:21:15.029Z,95854.78
2022-11-10T04:24:00.357Z,95861.19
2022-11-10T04:26:47.369Z,95860.69
2022-11-10T04:29:33.002Z,95861.53
2022-11-10T04:32:18.302Z,95865.81
2022-11-10T04:35:03.712Z,95879.16
2022-11-10T04:37:48.861Z,95886.16
2022-11-10T04:40:34.041Z,95895.56
2022-11-10T04:43:19.666Z,95900.34
2022-11-10T04:46:06.555Z,95908.91
2022-11-10T04:48:52.781Z,95915.34
2022-11-10T04:51:39.215Z,95914.03
2022-11-10T04:54:24.384Z,95911.25
2022-11-10T04:57:09.708Z,95912.91
2022-11-10T04:59:55.047Z,95913.22
2022-11-10T05:02:40.347Z,95916.59
2022-11-10T05:05:25.745Z,95916.19
2022-11-10T05:08:11.157Z,95920.91
2022-11-10T05:10:59.690Z,95925.81
2022-11-10T05:13:46.055Z,95923.75
2022-11-10T05:16:31.128Z,95927.00
2022-11-10T05:19:16.560Z,95930.75
2022-11-10T05:22:01.818Z,95934.56
2022-11-10T05:24:47.140Z,95937.88
2022-11-10T05:27:32.434Z,95939.53
2022-11-10T05:30:17.989Z,95946.63
2022-11-10T05:33:04.188Z,95959.81
2022-11-10T05:35:50.274Z,95961.47
2022-11-10T05:38:40.267Z,95961.28
2022-11-10T05:41:28.081Z,95963.59
2022-11-10T05:44:13.785Z,95975.81
2022-11-10T05:46:58.993Z,95985.38
2022-11-10T05:49:44.688Z,95991.72
2022-11-10T05:52:29.849Z,95995.31
2022-11-10T05:55:16.567Z,95996.06
2022-11-10T05:58:01.652Z,95997.84
2022-11-10T06:00:46.970Z,96003.13
2022-11-10T06:03:32.418Z,96004.28
2022-11-10T06:06:18.652Z,96007.28
2022-11-10T06:09:03.924Z,96015.00
2022-11-10T06:11:49.309Z,96020.53
2022-11-10T06:14:34.560Z,96020.09
2022-11-10T06:17:19.837Z,96034.00
2022-11-10T06:20:05.666Z,96045.84
2022-11-10T06:23:11.866Z,96050.59
2022-11-10T06:25:57.247Z,96068.44
2022-11-10T06:28:42.583Z,96081.38
2022-11-10T06:31:28.182Z,96077.94
2022-11-10T06:34:13.226Z,96084.34
2022-11-10T06:36:58.454Z,96086.19
2022-11-10T06:39:43.711Z,96096.38
2022-11-10T06:42:28.860Z,96094.72
2022-11-10T06:45:13.942Z,96088.47
2022-11-10T06:48:09.367Z,96093.94
2022-11-10T06:50:54.593Z,96098.66
2022-11-10T06:53:39.871Z,96107.00
2022-11-10T06:56:25.437Z,96116.63
2022-11-10T06:59:10.688Z,96115.66
2022-11-10T07:01:56.103Z,96122.81
2022-11-10T07:04:42.750Z,96121.25
2022-11-10T07:07:27.722Z,96133.47
2022-11-10T07:10:13.055Z,96131.56
2022-11-10T07:12:59.994Z,96139.44
2022-11-10T07:15:45.447Z,96139.88
2022-11-10T07:18:30.984Z,96148.56
2022-11-10T07:21:16.283Z,96154.25
2022-11-10T07:24:01.747Z,96156.66
2022-11-10T07:26:47.134Z,96166.97
2022-11-10T07:29:32.156Z,96174.66
2022-11-10T07:32:17.470Z,96176.47
2022-11-10T07:35:02.647Z,96187.63
2022-11-10T07:37:47.967Z,96194.38
2022-11-10T07:40:33.489Z,96194.94
2022-11-10T07:43:20.496Z,96191.88
2022-11-10T07:46:05.836Z,96193.19
2022-11-10T07:48:50.939Z,96195.06
2022-11-10T07:51:36.264Z,96194.97
2022-11-10T07:54:21.589Z,96207.16
2022-11-10T07:57:07.103Z,96211.44
2022-11-10T07:59:55.462Z,96212.75
2022-11-10T08:02:43.292Z,96208.75
2022-11-10T08:05:28.449Z,96214.41
2022-11-10T08:08:14.182Z,96208.13
2022-11-10T08:10:59.152Z,96212.97
2022-11-10T08:13:44.563Z,96224.44
2022-11-10T08:16:29.885Z,96224.53
2022-11-10T08:19:15.144Z,96213.06
2022-11-10T08:22:00.688Z,96222.06
2022-11-10T08:24:45.954Z,96220.91
2022-11-10T08:27:31.376Z,96226.84
2022-11-10T08:30:16.716Z,96233.88
2022-11-10T08:33:03.194Z,96233.94
2022-11-10T08:35:51.248Z,96227.34
2022-11-10T08:38:36.505Z,96236.91
2022-11-10T08:41:21.764Z,96245.16
2022-11-10T08:44:10.721Z,96240.03
2022-11-10T08:46:56.265Z,96248.25
2022-11-10T08:49:41.697Z,96246.53
2022-11-10T08:52:27.125Z,96254.31
2022-11-10T08:55:12.392Z,96263.25
2022-11-10T08:58:00.633Z,96262.41
2022-11-10T09:00:46.379Z,96264.50
2022-11-10T09:03:31.660Z,96280.38
2022-11-10T09:06:17.060Z,96277.78
2022-11-10T09:09:02.601Z,96285.88
2022-11-10T09:11:47.919Z,96281.72
2022-11-10T09:14:33.310Z,96291.03
2022-11-10T09:17:18.760Z,96308.41
2022-11-10T09:20:05.843Z,96295.59
2022-11-10T09:22:50.881Z,96302.28
2022-11-10T09:25:36.580Z,96306.28
2022-11-10T09:28:22.791Z,96315.03
2022-11-10T09:31:07.962Z,96318.16
2022-11-10T09:33:53.279Z,96321.47
2022-11-10T09:36:40.259Z,96323.75
2022-11-10T09:39:25.406Z,96320.13
2022-11-10T09:42:33.091Z,96325.41
2022-11-10T09:45:27.072Z,96328.19
2022-11-10T09:48:24.933Z,96328.16
2022-11-10T09:51:44.036Z,96329.28
2022-11-10T09:54:42.250Z,96336.03
2022-11-10T09:57:27.763Z,96332.16
2022-11-10T10:00:15.610Z,96331.03
2022-11-10T10:03:06.124Z,96337.81
2022-11-10T10:06:12.244Z,96345.88
2022-11-10T10:09:11.821Z,96343.31
2022-11-10T10:12:10.699Z,96342.78
2022-11-10T10:15:00.845Z,96349.75
2022-11-10T10:18:25.381Z,96352.41
2022-11-10T10:21:29.461Z,96349.41
2022-11-10T10:24:21.886Z,96363.28
2022-11-10T10:27:15.403Z,96363.47
2022-11-10T10:30:00.824Z,96359.63
2022-11-10T10:32:46.309Z,96368.88
2022-11-10T10:35:37.672Z,96369.19
2022-11-10T10:38:36.281Z,96363.47
2022-11-10T10:41:25.088Z,96354.69
2022-11-10T10:44:14.083Z,96345.94
2022-11-10T10:47:01.512Z,96354.38
2022-11-10T10:49:46.865Z,96363.69
2022-11-10T10:52:32.341Z,96372.06
2022-11-10T10:55:17.716Z,96360.72
2022-11-10T10:58:23.757Z,96368.00
2022-11-10T11:01:15.477Z,96374.06
2022-11-10T11:04:24.906Z,96369.59
2022-11-10T11:07:30.007Z,96360.78
2022-11-10T11:10:31.064Z,96360.72
2022-11-10T11:13:23.346Z,96363.19
2022-11-10T11:16:12.167Z,96372.91
2022-11-10T11:18:57.509Z,96372.63
2022-11-10T11:22:21.660Z,96374.56
2022-11-10T11:25:33.756Z,96383.66
2022-11-10T11:29:02.278Z,96381.66
2022-11-10T11:31:59.529Z,96386.94
2022-11-10T11:35:05.918Z,96384.88
2022-11-10T11:38:33.576Z,96390.91
2022-11-10T11:41:34.133Z,96384.25
2022-11-10T11:44:49.609Z,96384.91
2022-11-10T11:47:49.874Z,96396.38
2022-11-10T11:50:50.367Z,96389.25
2022-11-10T11:54:05.042Z,96383.91
2022-11-10T11:56:51.401Z,96378.09
2022-11-10T11:59:50.553Z,96383.50
2022-11-10T12:02:47.565Z,96379.97
2022-11-10T12:05:55.353Z,96373.31
2022-11-10T12:08:54.362Z,96358.50
2022-11-10T12:12:26.264Z,96363.22
2022-11-10T12:15:28.031Z,96367.50
2022-11-10T12:18:34.995Z,96361.69
2022-11-10T12:21:38.038Z,96356.44
2022-11-10T12:24:28.936Z,96361.03
2022-11-10T12:27:20.687Z,96364.78
2022-11-10T12:30:14.239Z,96372.56
2022-11-10T12:33:07.328Z,96364.06
2022-11-10T12:35:55.055Z,96359.81
2022-11-10T12:39:06.988Z,96366.69
2022-11-10T12:41:59.235Z,96353.16
2022-11-10T12:45:07.383Z,96363.03
2022-11-10T12:47:54.332Z,96351.78
2022-11-10T12:50:49.498Z,96353.53
2022-11-10T12:53:38.833Z,96340.50
2022-11-10T12:56:54.752Z,96345.38
2022-11-10T12:59:43.163Z,96357.34
2022-11-10T13:02:44.294Z,96359.94
2022-11-10T13:05:41.872Z,96368.16
2022-11-10T13:08:42.440Z,96361.47
2022-11-10T13:11:37.230Z,96353.56
2022-11-10T13:14:29.451Z,96356.22
2022-11-10T13:17:26.852Z,96360.88
2022-11-10T13:20:40.061Z,96361.41
2022-11-10T13:23:52.352Z,96364.28
2022-11-10T13:26:40.239Z,96377.75
2022-11-10T13:29:34.693Z,96381.81
2022-11-10T13:32:26.176Z,96378.06
2022-11-10T13:35:29.449Z,96378.16
2022-11-10T13:38:32.885Z,96373.53
2022-11-10T13:41:17.814Z,96364.06
2022-11-10T13:44:03.048Z,96372.81
2022-11-10T13:47:08.450Z,96369.59
2022-11-10T13:50:17.171Z,96365.03
2022-11-10T13:53:40.663Z,96364.63
2022-11-10T13:56:39.279Z,96365.53
2022-11-10T13:59:30.518Z,96360.56
2022-11-10T14:02:39.304Z,96357.97
2022-11-10T14:05:30.335Z,96356.00
2022-11-10T14:08:22.695Z,96361.69
2022-11-10T14:11:20.958Z,96360.91
2022-11-10T14:14:27.067Z,96364.72
2022-11-10T14:17:39.536Z,96364.56
2022-11-10T14:20:32.685Z,96372.41
2022-11-10T14:23:43.493Z,96366.88
2022-11-10T14:26:34.663Z,96378.28
2022-11-10T14:29:40.734Z,96378.97
2022-11-10T14:32:31.637Z,96382.88
2022-11-10T14:35:23.166Z,96389.16
2022-11-10T14:38:20.317Z,96391.91
2022-11-10T14:41:07.495Z,96403.59
2022-11-10T14:44:05.347Z,96401.81
2022-11-10T14:46:51.860Z,96407.94
2022-11-10T14:50:02.455Z,96404.25
2022-11-10T14:52:51.664Z,96403.72
2022-11-10T14:55:37.100Z,96415.38
2022-11-10T14:58:34.040Z,96402.72
2022-11-10T15:01:46.433Z,96400.47
2022-11-10T15:04:33.294Z,96407.72
2022-11-10T15:07:19.297Z,96409.63
2022-11-10T15:10:16.237Z,96414.41
2022-11-10T15:13:05.305Z,96422.63
2022-11-10T15:15:50.428Z,96418.03
2022-11-10T15:18:35.675Z,96412.94
2022-11-10T15:21:26.480Z,96417.63
2022-11-10T15:24:12.232Z,96410.41
2022-11-10T15:26:57.495Z,96417.41
2022-11-10T15:29:42.960Z,96404.81
2022-11-10T15:32:50.556Z,96403.97
2022-11-10T15:35:35.894Z,96404.34
2022-11-10T15:38:31.899Z,96401.03
2022-11-10T15:41:27.097Z,96411.31
2022-11-10T15:44:15.765Z,96413.59
2022-11-10T15:47:00.762Z,96422.03
2022-11-10T15:49:46.848Z,96421.34
2022-11-10T15:52:33.223Z,96423.72
2022-11-10T15:55:23.476Z,96432.09
2022-11-10T15:58:13.063Z,96424.97
2022-11-10T16:00:58.088Z,96430.41
2022-11-10T16:03:43.907Z,96440.75
2022-11-10T16:06:30.586Z,96437.84
2022-11-10T16:09:15.876Z,96442.91
2022-11-10T16:12:01.291Z,96445.47
2022-11-10T16:14:49.707Z,96452.72
2022-11-10T16:17:34.817Z,96461.75
2022-11-10T16:20:20.106Z,96466.13
2022-11-10T16:23:05.427Z,96480.69
2022-11-10T16:25:54.691Z,96483.91
2022-11-10T16:28:41.938Z,96495.00
2022-11-10T16:31:27.685Z,96489.19
2022-11-10T16:34:14.735Z,96506.19
2022-11-10T16:37:00.070Z,96503.25
2022-11-10T16:39:45.433Z,96504.34
2022-11-10T16:42:30.860Z,96508.25
2022-11-10T16:45:24.693Z,96513.44
2022-11-10T16:48:13.160Z,96522.66
2022-11-10T16:51:00.272Z,96534.22
2022-11-10T16:53:45.615Z,96535.16
2022-11-10T16:56:30.815Z,96542.13
2022-11-10T16:59:16.977Z,96547.69
2022-11-10T17:02:02.090Z,96549.22
2022-11-10T17:04:47.372Z,96558.94
2022-11-10T17:07:33.748Z,96555.16
2022-11-10T17:10:21.156Z,96574.19
2022-11-10T17:13:08.956Z,96566.16
2022-11-10T17:16:01.011Z,96574.91
2022-11-10T17:18:46.585Z,96572.72
2022-11-10T17:21:34.450Z,96573.00
2022-11-10T17:24:20.112Z,96580.22
2022-11-10T17:27:05.655Z,96580.22
2022-11-10T17:29:50.878Z,96588.53
2022-11-10T17:33:02.893Z,96587.03
2022-11-10T17:35:53.084Z,96595.81
2022-11-10T17:38:38.567Z,96589.53
2022-11-10T17:41:24.007Z,96595.13
2022-11-10T17:44:16.371Z,96591.09
2022-11-10T17:47:01.557Z,96586.53
2022-11-10T17:49:46.842Z,96593.22
2022-11-10T17:52:32.120Z,96597.53
2022-11-10T17:55:19.836Z,96596.97
2022-11-10T17:58:05.078Z,96605.44
2022-11-10T18:00:51.576Z,96604.16
2022-11-10T18:03:36.541Z,96608.47
2022-11-10T18:06:21.980Z,96614.41
2022-11-10T18:09:07.425Z,96611.50
2022-11-10T18:11:52.558Z,96611.22
2022-11-10T18:14:37.825Z,96612.59
2022-11-10T18:17:23.913Z,96620.88
2022-11-10T18:20:10.964Z,96631.97
2022-11-10T18:22:55.942Z,96647.88
2022-11-10T18:25:42.545Z,96650.78
2022-11-10T18:28:27.685Z,96649.09
2022-11-10T18:31:13.197Z,96646.59
2022-11-10T18:33:58.662Z,96654.19
2022-11-10T18:36:43.607Z,96655.13
2022-11-10T18:39:28.920Z,96645.72
2022-11-10T18:42:14.555Z,96646.69
2022-11-10T18:44:59.715Z,96640.59
2022-11-10T18:47:45.132Z,96648.19
2022-11-10T18:50:30.822Z,96632.56
2022-11-10T18:53:16.234Z,96628.53
2022-11-10T18:56:01.426Z,96613.84
2022-11-10T18:58:56.182Z,96614.66
2022-11-10T19:01:41.991Z,96600.38
2022-11-10T19:04:26.971Z,96594.47
2022-11-10T19:07:12.210Z,96617.09
2022-11-10T19:09:57.598Z,96616.00
2022-11-10T19:12:42.936Z,96614.63
2022-11-10T19:15:28.151Z,96624.59
2022-11-10T19:18:13.753Z,96628.72
2022-11-10T19:21:04.537Z,96623.31
2022-11-10T19:23:54.696Z,96624.53
2022-11-10T19:26:39.741Z,96630.34
2022-11-10T19:29:25.024Z,96645.16
2022-11-10T19:32:10.212Z,96652.44
2022-11-10T19:34:55.766Z,96646.13
2022-11-10T19:37:41.037Z,96635.03
2022-11-10T19:40:26.312Z,96635.19
2022-11-10T19:43:11.737Z,96639.84
2022-11-10T19:45:57.089Z,96645.09
2022-11-10T19:48:43.733Z,96630.03
2022-11-10T19:51:29.268Z,96633.75
2022-11-10T19:54:14.647Z,96637.09
2022-11-10T19:57:01.070Z,96630.22
2022-11-10T19:59:46.301Z,96626.56
2022-11-10T20:02:31.759Z,96631.03
2022-11-10T20:05:19.900Z,96628.53
2022-11-10T20:08:11.643Z,96640.78
2022-11-10T20:11:12.192Z,96644.72
2022-11-10T20:14:00.495Z,96645.69
2022-11-10T20:16:45.439Z,96655.22
2022-11-10T20:19:30.982Z,96657.22
2022-11-10T20:22:16.207Z,96667.38
2022-11-10T20:25:01.656Z,96670.00
2022-11-10T20:27:47.014Z,96665.19
2022-11-10T20:30:34.456Z,96666.97
2022-11-10T20:33:20.335Z,96664.34
2022-11-10T20:36:18.979Z,96656.31
2022-11-10T20:39:05.567Z,96653.53
2022-11-10T20:41:52.485Z,96655.94
2022-11-10T20:44:37.843Z,96647.94
2022-11-10T20:47:23.632Z,96654.84
2022-11-10T20:50:14.774Z,96653.09
2022-11-10T20:53:01.915Z,96649.88
2022-11-10T20:55:54.409Z,96652.72
2022-11-10T20:58:40.572Z,96661.34
2022-11-10T21:01:26.360Z,96660.84
2022-11-10T21:04:11.419Z,96668.25
2022-11-10T21:06:56.816Z,96672.69
2022-11-10T21:09:42.244Z,96677.69
2022-11-10T21:12:46.343Z,96673.19
2022-11-10T21:15:31.932Z,96679.38
2022-11-10T21:18:17.329Z,96680.34
2022-11-10T21:21:04.643Z,96674.38
2022-11-10T21:23:57.351Z,96677.25
2022-11-10T21:26:42.676Z,96680.34
2022-11-10T21:29:28.008Z,96675.09
2022-11-10T21:32:13.239Z,96674.41
2022-11-10T21:34:58.703Z,96674.75
2022-11-10T21:37:43.880Z,96663.91
2022-11-10T21:40:29.200Z,96667.94
2022-11-10T21:43:14.515Z,96676.31
2022-11-10T21:46:03.896Z,96664.88
2022-11-10T21:48:52.775Z,96678.44
2022-11-10T21:51:37.939Z,96680.72
2022-11-10T21:54:23.369Z,96675.81
2022-11-10T21:57:08.738Z,96676.56
2022-11-10T21:59:54.039Z,96682.75
2022-11-10T22:02:39.407Z,96675.00
2022-11-10T22:05:24.800Z,96671.19
2022-11-10T22:08:10.448Z,96665.09
2022-11-10T22:11:14.027Z,96674.41
2022-11-10T22:14:17.940Z,96680.97
2022-11-10T22:17:32.385Z,96675.84
2022-11-10T22:20:17.735Z,96673.81
2022-11-10T22:23:02.996Z,96679.66
2022-11-10T22:25:48.193Z,96682.13
2022-11-10T22:28:33.352Z,96679.66
2022-11-10T22:31:18.719Z,96679.31
2022-11-10T22:34:04.108Z,96675.94
2022-11-10T22:36:50.025Z,96677.50
2022-11-10T22:39:53.394Z,96680.03
2022-11-10T22:42:57.130Z,96680.97
2022-11-10T22:45:44.715Z,96686.09
2022-11-10T22:48:33.388Z,96699.66
2022-11-10T22:51:18.509Z,96694.78
2022-11-10T22:54:04.634Z,96679.53
2022-11-10T22:56:50.843Z,96674.91
2022-11-10T22:59:36.115Z,96683.47
2022-11-10T23:02:21.436Z,96684.88
2022-11-10T23:05:07.068Z,96679.75
2022-11-10T23:07:52.267Z,96680.38
2022-11-10T23:10:37.620Z,96681.91
2022-11-10T23:13:23.110Z,96677.75
2022-11-10T23:16:14.084Z,96669.50
2022-11-10T23:18:59.152Z,96670.22
2022-11-10T23:21:44.472Z,96664.63
2022-11-10T23:24:30.264Z,96664.53
2022-11-10T23:27:15.567Z,96666.28
2022-11-10T23:30:00.914Z,96677.47
2022-11-10T23:32:46.228Z,96686.03
2022-11-10T23:35:32.892Z,96681.31
2022-11-10T23:38:18.020Z,96674.41
2022-11-10T23:41:05.697Z,96671.06
2022-11-10T23:43:50.888Z,96664.50
2022-11-10T23:46:36.153Z,96666.91
2022-11-10T23:49:21.577Z,96668.53
2022-11-10T23:52:06.960Z,96665.47
2022-11-10T23:54:52.341Z,96666.09
2022-11-10T23:57:37.643Z,96670.31
